Decoded Metar for LFKF (FIGARI in CORSE ISL.) (IATA:FSC) | Meteo·Mobile Aviation Weather
aviador You're here:

LFKF Decoded Metar

FIGARI in CORSE ISL.
Report Time2018-12-16 17:30:00
UTC Time2018-12-16 17:58:43
Flight Rules ifr IFR
Wind230° at 05 Gusting to 16 kt
W.Decomp.*RWY 23: 5.0 kt HW 0.1 kt LCW
W.Rank230° ranks 4
Current wind is below 230° avg. (10.1)
Visibility9999 m
Phenomena:Rain
Clouds:Overcast 008 Hf
Expected CloudBase > 400 ft AGL from Temp-Dew spread
Ceiling800 ft
Temp12°C (ISA -3)
Dew Point11°C (94% RH)
AAT10.5°C
QNH1013 hPa
Density Alt-89 ft
Elevation75 ft
Report Wrong Elevation
Raw Report
LFKF 161730Z AUTO 23005G16KT 350V060 9999 OVC008 12/11 Q1013 TEMPO
24020G35KT 2000 RA OVC010=

Extra information for LFKF:More info

Metar Taf Metar & Taf Last 4 Metars F.Rules Stats Wind Profile Meteogram Temp Stats Airport Information Weather charts Add Link Nearby VenuesMetar ALERT Operation Metar Decoded Social comments